sensor_id;sensor_type;location;lat;lon;timestamp;temperature;humidity
24618;DHT22;12762;51.730;5.356;2022-11-25T00:01:06;10.30;82.30
24618;DHT22;12762;51.730;5.356;2022-11-25T00:03:34;10.30;82.30
24618;DHT22;12762;51.730;5.356;2022-11-25T00:08:35;10.30;82.40
24618;DHT22;12762;51.730;5.356;2022-11-25T00:11:03;10.30;82.50
24618;DHT22;12762;51.730;5.356;2022-11-25T00:13:31;10.30;82.60
24618;DHT22;12762;51.730;5.356;2022-11-25T00:16:03;10.40;82.80
24618;DHT22;12762;51.730;5.356;2022-11-25T00:18:33;10.30;82.70
24618;DHT22;12762;51.730;5.356;2022-11-25T00:21:08;10.40;82.90
24618;DHT22;12762;51.730;5.356;2022-11-25T00:23:35;10.40;83.00
24618;DHT22;12762;51.730;5.356;2022-11-25T00:26:10;10.40;83.00
24618;DHT22;12762;51.730;5.356;2022-11-25T00:28:38;10.40;83.10
24618;DHT22;12762;51.730;5.356;2022-11-25T00:31:17;10.40;83.10
24618;DHT22;12762;51.730;5.356;2022-11-25T00:33:45;10.40;83.20
24618;DHT22;12762;51.730;5.356;2022-11-25T00:36:18;10.40;83.20
24618;DHT22;12762;51.730;5.356;2022-11-25T00:38:46;10.40;83.20
24618;DHT22;12762;51.730;5.356;2022-11-25T00:41:13;10.40;83.30
24618;DHT22;12762;51.730;5.356;2022-11-25T00:43:58;10.40;83.40
24618;DHT22;12762;51.730;5.356;2022-11-25T00:46:44;10.40;83.40
24618;DHT22;12762;51.730;5.356;2022-11-25T00:49:11;10.40;83.40
24618;DHT22;12762;51.730;5.356;2022-11-25T00:51:38;10.50;83.50
24618;DHT22;12762;51.730;5.356;2022-11-25T00:54:05;10.50;83.50
24618;DHT22;12762;51.730;5.356;2022-11-25T00:56:31;10.50;83.50
24618;DHT22;12762;51.730;5.356;2022-11-25T00:58:58;10.50;83.50
24618;DHT22;12762;51.730;5.356;2022-11-25T01:01:25;10.50;83.50
24618;DHT22;12762;51.730;5.356;2022-11-25T01:03:52;10.50;83.50
24618;DHT22;12762;51.730;5.356;2022-11-25T01:06:20;10.60;83.60
24618;DHT22;12762;51.730;5.356;2022-11-25T01:08:47;10.60;83.60
24618;DHT22;12762;51.730;5.356;2022-11-25T01:11:16;10.60;83.60
24618;DHT22;12762;51.730;5.356;2022-11-25T01:13:44;10.60;83.60
24618;DHT22;12762;51.730;5.356;2022-11-25T01:16:16;10.60;83.60
24618;DHT22;12762;51.730;5.356;2022-11-25T01:18:43;10.60;83.60
24618;DHT22;12762;51.730;5.356;2022-11-25T01:21:19;10.60;83.60
24618;DHT22;12762;51.730;5.356;2022-11-25T01:23:47;10.70;83.70
24618;DHT22;12762;51.730;5.356;2022-11-25T01:26:22;10.70;83.60
24618;DHT22;12762;51.730;5.356;2022-11-25T01:28:53;10.70;83.70
24618;DHT22;12762;51.730;5.356;2022-11-25T01:31:22;10.70;83.60
24618;DHT22;12762;51.730;5.356;2022-11-25T01:33:57;10.70;83.70
24618;DHT22;12762;51.730;5.356;2022-11-25T01:36:24;10.70;83.60
24618;DHT22;12762;51.730;5.356;2022-11-25T01:38:54;10.70;83.70
24618;DHT22;12762;51.730;5.356;2022-11-25T01:41:23;10.80;83.70
24618;DHT22;12762;51.730;5.356;2022-11-25T01:44:17;10.80;83.70
24618;DHT22;12762;51.730;5.356;2022-11-25T01:49:32;10.80;83.80
24618;DHT22;12762;51.730;5.356;2022-11-25T01:54:39;10.80;83.80
24618;DHT22;12762;51.730;5.356;2022-11-25T01:57:13;10.80;83.80
24618;DHT22;12762;51.730;5.356;2022-11-25T01:59:45;10.80;83.80
24618;DHT22;12762;51.730;5.356;2022-11-25T02:02:15;10.90;83.90
24618;DHT22;12762;51.730;5.356;2022-11-25T02:04:43;10.90;83.90
24618;DHT22;12762;51.730;5.356;2022-11-25T02:07:35;10.90;83.90
24618;DHT22;12762;51.730;5.356;2022-11-25T02:10:06;10.90;84.00
24618;DHT22;12762;51.730;5.356;2022-11-25T02:12:34;10.90;84.00
24618;DHT22;12762;51.730;5.356;2022-11-25T02:15:03;10.90;84.10
24618;DHT22;12762;51.730;5.356;2022-11-25T02:17:30;10.90;84.10
24618;DHT22;12762;51.730;5.356;2022-11-25T02:20:09;10.90;84.20
24618;DHT22;12762;51.730;5.356;2022-11-25T02:23:02;10.90;84.20
24618;DHT22;12762;51.730;5.356;2022-11-25T02:25:37;10.90;84.30
24618;DHT22;12762;51.730;5.356;2022-11-25T02:28:23;10.90;84.30
24618;DHT22;12762;51.730;5.356;2022-11-25T02:30:50;10.80;84.20
24618;DHT22;12762;51.730;5.356;2022-11-25T02:33:18;10.80;84.30
24618;DHT22;12762;51.730;5.356;2022-11-25T02:38:36;10.80;84.50
24618;DHT22;12762;51.730;5.356;2022-11-25T02:41:17;10.80;84.50
24618;DHT22;12762;51.730;5.356;2022-11-25T02:43:45;10.70;84.60
24618;DHT22;12762;51.730;5.356;2022-11-25T02:46:17;10.70;84.70
24618;DHT22;12762;51.730;5.356;2022-11-25T02:48:48;10.70;84.80
24618;DHT22;12762;51.730;5.356;2022-11-25T02:51:36;10.70;84.90
24618;DHT22;12762;51.730;5.356;2022-11-25T02:54:06;10.60;84.90
24618;DHT22;12762;51.730;5.356;2022-11-25T02:56:37;10.60;85.00
24618;DHT22;12762;51.730;5.356;2022-11-25T02:59:04;10.60;85.00
24618;DHT22;12762;51.730;5.356;2022-11-25T03:01:31;10.60;85.10
24618;DHT22;12762;51.730;5.356;2022-11-25T03:03:59;10.50;85.10
24618;DHT22;12762;51.730;5.356;2022-11-25T03:06:29;10.50;85.20
24618;DHT22;12762;51.730;5.356;2022-11-25T03:08:57;10.50;85.30
24618;DHT22;12762;51.730;5.356;2022-11-25T03:11:24;10.50;85.30
24618;DHT22;12762;51.730;5.356;2022-11-25T03:14:09;10.50;85.40
24618;DHT22;12762;51.730;5.356;2022-11-25T03:16:36;10.50;85.40
24618;DHT22;12762;51.730;5.356;2022-11-25T03:19:05;10.50;86.20
24618;DHT22;12762;51.730;5.356;2022-11-25T03:21:32;10.40;85.30
24618;DHT22;12762;51.730;5.356;2022-11-25T03:23:59;10.40;85.40
24618;DHT22;12762;51.730;5.356;2022-11-25T03:26:26;10.40;85.50
24618;DHT22;12762;51.730;5.356;2022-11-25T03:28:55;10.40;85.60
24618;DHT22;12762;51.730;5.356;2022-11-25T03:31:22;10.30;85.60
24618;DHT22;12762;51.730;5.356;2022-11-25T03:33:50;10.30;85.70
24618;DHT22;12762;51.730;5.356;2022-11-25T03:36:17;10.30;85.80
24618;DHT22;12762;51.730;5.356;2022-11-25T03:38:44;10.30;85.90
24618;DHT22;12762;51.730;5.356;2022-11-25T03:41:11;10.30;86.00
24618;DHT22;12762;51.730;5.356;2022-11-25T03:43:37;10.30;86.10
24618;DHT22;12762;51.730;5.356;2022-11-25T03:46:07;10.20;86.00
24618;DHT22;12762;51.730;5.356;2022-11-25T03:48:34;10.20;86.90
24618;DHT22;12762;51.730;5.356;2022-11-25T03:51:01;10.20;86.10
24618;DHT22;12762;51.730;5.356;2022-11-25T03:53:27;10.20;86.20
24618;DHT22;12762;51.730;5.356;2022-11-25T03:55:54;10.20;86.30
24618;DHT22;12762;51.730;5.356;2022-11-25T03:58:24;10.20;86.40
24618;DHT22;12762;51.730;5.356;2022-11-25T04:00:51;10.20;86.50
24618;DHT22;12762;51.730;5.356;2022-11-25T04:03:18;10.20;86.50
24618;DHT22;12762;51.730;5.356;2022-11-25T04:05:44;10.20;86.50
24618;DHT22;12762;51.730;5.356;2022-11-25T04:08:14;10.20;86.60
24618;DHT22;12762;51.730;5.356;2022-11-25T04:10:41;10.20;86.70
24618;DHT22;12762;51.730;5.356;2022-11-25T04:13:08;10.20;86.70
24618;DHT22;12762;51.730;5.356;2022-11-25T04:15:35;10.20;86.70
24618;DHT22;12762;51.730;5.356;2022-11-25T04:18:02;10.20;86.70
24618;DHT22;12762;51.730;5.356;2022-11-25T04:20:28;10.20;86.80
24618;DHT22;12762;51.730;5.356;2022-11-25T04:22:55;10.20;86.80
24618;DHT22;12762;51.730;5.356;2022-11-25T04:25:22;10.20;86.90
24618;DHT22;12762;51.730;5.356;2022-11-25T04:27:49;10.10;86.80
24618;DHT22;12762;51.730;5.356;2022-11-25T04:30:15;10.10;86.90
24618;DHT22;12762;51.730;5.356;2022-11-25T04:32:42;10.10;86.90
24618;DHT22;12762;51.730;5.356;2022-11-25T04:35:09;10.10;87.00
24618;DHT22;12762;51.730;5.356;2022-11-25T04:37:36;10.10;87.00
24618;DHT22;12762;51.730;5.356;2022-11-25T04:40:03;10.10;87.00
24618;DHT22;12762;51.730;5.356;2022-11-25T04:42:31;10.10;87.10
24618;DHT22;12762;51.730;5.356;2022-11-25T04:45:03;10.10;87.10
24618;DHT22;12762;51.730;5.356;2022-11-25T04:47:49;10.10;87.20
24618;DHT22;12762;51.730;5.356;2022-11-25T04:50:19;10.00;87.10
24618;DHT22;12762;51.730;5.356;2022-11-25T04:52:49;10.00;87.10
24618;DHT22;12762;51.730;5.356;2022-11-25T04:55:16;10.00;87.00
24618;DHT22;12762;51.730;5.356;2022-11-25T04:57:43;10.00;87.00
24618;DHT22;12762;51.730;5.356;2022-11-25T05:00:10;10.00;87.00
24618;DHT22;12762;51.730;5.356;2022-11-25T05:02:39;10.00;87.00
24618;DHT22;12762;51.730;5.356;2022-11-25T05:05:07;9.90;88.00
24618;DHT22;12762;51.730;5.356;2022-11-25T05:07:34;9.90;88.00
24618;DHT22;12762;51.730;5.356;2022-11-25T05:10:01;9.90;88.10
24618;DHT22;12762;51.730;5.356;2022-11-25T05:12:28;9.90;88.10
24618;DHT22;12762;51.730;5.356;2022-11-25T05:14:55;9.90;88.20
24618;DHT22;12762;51.730;5.356;2022-11-25T05:17:28;9.80;88.10
24618;DHT22;12762;51.730;5.356;2022-11-25T05:19:55;9.80;88.20
24618;DHT22;12762;51.730;5.356;2022-11-25T05:22:28;9.80;88.20
24618;DHT22;12762;51.730;5.356;2022-11-25T05:24:55;9.80;88.20
24618;DHT22;12762;51.730;5.356;2022-11-25T05:27:23;9.80;88.20
24618;DHT22;12762;51.730;5.356;2022-11-25T05:29:50;9.80;88.20
24618;DHT22;12762;51.730;5.356;2022-11-25T05:32:21;9.70;88.00
24618;DHT22;12762;51.730;5.356;2022-11-25T05:34:48;9.70;88.20
24618;DHT22;12762;51.730;5.356;2022-11-25T05:37:15;9.60;88.10
24618;DHT22;12762;51.730;5.356;2022-11-25T05:39:49;9.60;88.20
24618;DHT22;12762;51.730;5.356;2022-11-25T05:42:16;9.60;88.20
24618;DHT22;12762;51.730;5.356;2022-11-25T05:44:43;9.50;88.10
24618;DHT22;12762;51.730;5.356;2022-11-25T05:47:09;9.50;88.20
24618;DHT22;12762;51.730;5.356;2022-11-25T05:49:36;9.50;88.30
24618;DHT22;12762;51.730;5.356;2022-11-25T05:52:03;9.40;88.20
24618;DHT22;12762;51.730;5.356;2022-11-25T05:54:30;9.40;88.30
24618;DHT22;12762;51.730;5.356;2022-11-25T05:56:57;9.40;88.40
24618;DHT22;12762;51.730;5.356;2022-11-25T05:59:25;9.30;88.40
24618;DHT22;12762;51.730;5.356;2022-11-25T06:01:53;9.30;88.40
24618;DHT22;12762;51.730;5.356;2022-11-25T06:04:19;9.30;88.50
24618;DHT22;12762;51.730;5.356;2022-11-25T06:06:49;9.30;88.60
24618;DHT22;12762;51.730;5.356;2022-11-25T06:09:16;9.20;88.60
24618;DHT22;12762;51.730;5.356;2022-11-25T06:11:43;9.20;88.60
24618;DHT22;12762;51.730;5.356;2022-11-25T06:14:10;9.20;88.60
24618;DHT22;12762;51.730;5.356;2022-11-25T06:16:36;9.10;88.60
24618;DHT22;12762;51.730;5.356;2022-11-25T06:19:03;9.10;89.20
24618;DHT22;12762;51.730;5.356;2022-11-25T06:21:32;9.10;88.70
24618;DHT22;12762;51.730;5.356;2022-11-25T06:23:59;9.10;88.70
24618;DHT22;12762;51.730;5.356;2022-11-25T06:26:26;9.10;88.90
24618;DHT22;12762;51.730;5.356;2022-11-25T06:28:54;9.10;88.90
24618;DHT22;12762;51.730;5.356;2022-11-25T06:31:23;9.10;88.90
24618;DHT22;12762;51.730;5.356;2022-11-25T06:33:52;9.00;88.90
24618;DHT22;12762;51.730;5.356;2022-11-25T06:36:20;9.00;89.00
24618;DHT22;12762;51.730;5.356;2022-11-25T06:38:50;9.00;89.00
24618;DHT22;12762;51.730;5.356;2022-11-25T06:41:17;9.00;89.80
24618;DHT22;12762;51.730;5.356;2022-11-25T06:43:44;9.00;89.00
24618;DHT22;12762;51.730;5.356;2022-11-25T06:46:16;9.00;89.10
24618;DHT22;12762;51.730;5.356;2022-11-25T06:48:50;8.90;89.00
24618;DHT22;12762;51.730;5.356;2022-11-25T06:51:17;8.90;89.00
24618;DHT22;12762;51.730;5.356;2022-11-25T06:53:44;8.90;89.10
24618;DHT22;12762;51.730;5.356;2022-11-25T06:56:22;8.90;89.20
24618;DHT22;12762;51.730;5.356;2022-11-25T06:58:51;8.80;89.20
24618;DHT22;12762;51.730;5.356;2022-11-25T07:01:19;8.80;89.30
24618;DHT22;12762;51.730;5.356;2022-11-25T07:03:53;8.80;89.30
24618;DHT22;12762;51.730;5.356;2022-11-25T07:06:21;8.80;89.70
24618;DHT22;12762;51.730;5.356;2022-11-25T07:08:51;8.70;89.20
24618;DHT22;12762;51.730;5.356;2022-11-25T07:13:47;8.70;89.40
24618;DHT22;12762;51.730;5.356;2022-11-25T07:16:16;8.70;89.50
24618;DHT22;12762;51.730;5.356;2022-11-25T07:18:43;8.70;89.50
24618;DHT22;12762;51.730;5.356;2022-11-25T07:21:23;8.70;89.60
24618;DHT22;12762;51.730;5.356;2022-11-25T07:23:51;8.70;89.70
24618;DHT22;12762;51.730;5.356;2022-11-25T07:26:38;8.70;89.70
24618;DHT22;12762;51.730;5.356;2022-11-25T07:29:10;8.70;89.50
24618;DHT22;12762;51.730;5.356;2022-11-25T07:31:57;8.70;89.70
24618;DHT22;12762;51.730;5.356;2022-11-25T07:34:24;8.70;89.70
24618;DHT22;12762;51.730;5.356;2022-11-25T07:36:51;8.70;89.70
24618;DHT22;12762;51.730;5.356;2022-11-25T07:39:20;8.70;89.70
24618;DHT22;12762;51.730;5.356;2022-11-25T07:41:52;8.70;89.80
24618;DHT22;12762;51.730;5.356;2022-11-25T07:44:20;8.70;89.80
24618;DHT22;12762;51.730;5.356;2022-11-25T07:46:48;8.70;89.80
24618;DHT22;12762;51.730;5.356;2022-11-25T07:49:20;8.70;89.80
24618;DHT22;12762;51.730;5.356;2022-11-25T07:51:55;8.70;89.90
24618;DHT22;12762;51.730;5.356;2022-11-25T07:54:23;8.70;89.80
24618;DHT22;12762;51.730;5.356;2022-11-25T07:56:51;8.70;89.90
24618;DHT22;12762;51.730;5.356;2022-11-25T07:59:19;8.70;89.80
24618;DHT22;12762;51.730;5.356;2022-11-25T08:01:54;8.70;89.80
24618;DHT22;12762;51.730;5.356;2022-11-25T08:04:22;8.70;89.90
24618;DHT22;12762;51.730;5.356;2022-11-25T08:06:51;8.70;89.90
24618;DHT22;12762;51.730;5.356;2022-11-25T08:09:20;8.70;89.90
24618;DHT22;12762;51.730;5.356;2022-11-25T08:11:48;8.80;90.00
24618;DHT22;12762;51.730;5.356;2022-11-25T08:14:15;8.80;90.00
24618;DHT22;12762;51.730;5.356;2022-11-25T08:16:43;8.80;90.00
24618;DHT22;12762;51.730;5.356;2022-11-25T08:19:12;8.80;90.00
24618;DHT22;12762;51.730;5.356;2022-11-25T08:21:42;8.80;90.00
24618;DHT22;12762;51.730;5.356;2022-11-25T08:24:18;8.80;90.00
24618;DHT22;12762;51.730;5.356;2022-11-25T08:26:45;8.90;90.00
24618;DHT22;12762;51.730;5.356;2022-11-25T08:29:17;8.90;90.00
24618;DHT22;12762;51.730;5.356;2022-11-25T08:31:46;8.90;89.90
24618;DHT22;12762;51.730;5.356;2022-11-25T08:34:22;9.00;90.00
24618;DHT22;12762;51.730;5.356;2022-11-25T08:36:50;9.00;90.00
24618;DHT22;12762;51.730;5.356;2022-11-25T08:39:18;9.30;90.30
24618;DHT22;12762;51.730;5.356;2022-11-25T08:42:06;9.80;90.30
24618;DHT22;12762;51.730;5.356;2022-11-25T08:44:34;10.30;88.80
24618;DHT22;12762;51.730;5.356;2022-11-25T08:47:01;11.00;88.30
24618;DHT22;12762;51.730;5.356;2022-11-25T08:49:31;11.70;87.20
24618;DHT22;12762;51.730;5.356;2022-11-25T08:52:06;12.20;85.80
24618;DHT22;12762;51.730;5.356;2022-11-25T08:54:33;12.60;84.60
24618;DHT22;12762;51.730;5.356;2022-11-25T08:56:59;12.60;83.50
24618;DHT22;12762;51.730;5.356;2022-11-25T08:59:27;12.50;82.80
24618;DHT22;12762;51.730;5.356;2022-11-25T09:01:54;12.20;82.60
24618;DHT22;12762;51.730;5.356;2022-11-25T09:04:21;12.00;82.60
24618;DHT22;12762;51.730;5.356;2022-11-25T09:06:50;11.70;82.80
24618;DHT22;12762;51.730;5.356;2022-11-25T09:09:20;11.40;82.90
24618;DHT22;12762;51.730;5.356;2022-11-25T09:11:47;11.20;83.20
24618;DHT22;12762;51.730;5.356;2022-11-25T09:14:17;11.10;83.70
24618;DHT22;12762;51.730;5.356;2022-11-25T09:16:44;10.90;83.90
24618;DHT22;12762;51.730;5.356;2022-11-25T09:19:11;10.80;84.30
24618;DHT22;12762;51.730;5.356;2022-11-25T09:21:42;10.80;84.70
24618;DHT22;12762;51.730;5.356;2022-11-25T09:24:09;10.80;85.00
24618;DHT22;12762;51.730;5.356;2022-11-25T09:26:36;10.70;85.10
24618;DHT22;12762;51.730;5.356;2022-11-25T09:29:06;10.70;85.30
24618;DHT22;12762;51.730;5.356;2022-11-25T09:31:33;10.70;85.40
24618;DHT22;12762;51.730;5.356;2022-11-25T09:34:02;10.80;85.60
24618;DHT22;12762;51.730;5.356;2022-11-25T09:36:29;10.80;85.60
24618;DHT22;12762;51.730;5.356;2022-11-25T09:38:56;10.90;85.90
24618;DHT22;12762;51.730;5.356;2022-11-25T09:48:32;11.00;85.80
24618;DHT22;12762;51.730;5.356;2022-11-25T09:51:22;11.10;86.60
24618;DHT22;12762;51.730;5.356;2022-11-25T09:53:55;11.20;85.80
24618;DHT22;12762;51.730;5.356;2022-11-25T09:56:30;11.20;85.70
24618;DHT22;12762;51.730;5.356;2022-11-25T10:02:00;11.30;86.30
24618;DHT22;12762;51.730;5.356;2022-11-25T10:04:41;11.40;85.50
24618;DHT22;12762;51.730;5.356;2022-11-25T10:07:17;11.50;85.50
24618;DHT22;12762;51.730;5.356;2022-11-25T10:09:46;11.50;85.30
24618;DHT22;12762;51.730;5.356;2022-11-25T10:12:24;11.60;85.20
24618;DHT22;12762;51.730;5.356;2022-11-25T10:15:02;11.60;85.10
24618;DHT22;12762;51.730;5.356;2022-11-25T10:20:04;11.70;84.90
24618;DHT22;12762;51.730;5.356;2022-11-25T10:22:34;11.80;84.70
24618;DHT22;12762;51.730;5.356;2022-11-25T10:25:21;11.80;84.60
24618;DHT22;12762;51.730;5.356;2022-11-25T10:28:02;11.90;84.60
24618;DHT22;12762;51.730;5.356;2022-11-25T10:30:41;12.00;84.60
24618;DHT22;12762;51.730;5.356;2022-11-25T10:33:20;12.00;84.30
24618;DHT22;12762;51.730;5.356;2022-11-25T10:41:18;12.20;83.90
24618;DHT22;12762;51.730;5.356;2022-11-25T10:43:47;12.30;83.80
24618;DHT22;12762;51.730;5.356;2022-11-25T10:51:59;12.50;83.40
24618;DHT22;12762;51.730;5.356;2022-11-25T10:54:30;12.60;83.20
24618;DHT22;12762;51.730;5.356;2022-11-25T10:57:01;12.60;83.10
24618;DHT22;12762;51.730;5.356;2022-11-25T10:59:34;12.70;83.00
24618;DHT22;12762;51.730;5.356;2022-11-25T11:02:15;12.80;82.70
24618;DHT22;12762;51.730;5.356;2022-11-25T11:07:25;12.90;82.40
24618;DHT22;12762;51.730;5.356;2022-11-25T11:09:52;13.00;82.10
24618;DHT22;12762;51.730;5.356;2022-11-25T11:12:32;13.00;81.80
24618;DHT22;12762;51.730;5.356;2022-11-25T11:15:18;13.00;81.70
24618;DHT22;12762;51.730;5.356;2022-11-25T11:17:46;13.00;81.60
24618;DHT22;12762;51.730;5.356;2022-11-25T11:23:02;13.10;81.30
24618;DHT22;12762;51.730;5.356;2022-11-25T11:25:37;13.20;81.20
24618;DHT22;12762;51.730;5.356;2022-11-25T11:28:27;13.20;81.00
24618;DHT22;12762;51.730;5.356;2022-11-25T11:33:54;13.30;80.80
24618;DHT22;12762;51.730;5.356;2022-11-25T11:36:52;13.40;80.70
24618;DHT22;12762;51.730;5.356;2022-11-25T11:42:37;13.50;80.70
24618;DHT22;12762;51.730;5.356;2022-11-25T11:48:23;13.60;80.40
24618;DHT22;12762;51.730;5.356;2022-11-25T11:53:50;13.70;80.30
24618;DHT22;12762;51.730;5.356;2022-11-25T11:59:20;13.80;80.00
24618;DHT22;12762;51.730;5.356;2022-11-25T12:15:52;14.00;79.20
24618;DHT22;12762;51.730;5.356;2022-11-25T12:18:33;14.00;79.10
24618;DHT22;12762;51.730;5.356;2022-11-25T12:21:05;14.10;79.00
24618;DHT22;12762;51.730;5.356;2022-11-25T12:26:32;14.10;78.50
24618;DHT22;12762;51.730;5.356;2022-11-25T12:29:04;14.20;78.70
24618;DHT22;12762;51.730;5.356;2022-11-25T12:31:41;14.20;78.40
24618;DHT22;12762;51.730;5.356;2022-11-25T12:34:26;14.20;78.20
24618;DHT22;12762;51.730;5.356;2022-11-25T12:37:05;14.20;78.20
24618;DHT22;12762;51.730;5.356;2022-11-25T12:39:58;14.10;78.00
24618;DHT22;12762;51.730;5.356;2022-11-25T12:42:27;14.00;77.90
24618;DHT22;12762;51.730;5.356;2022-11-25T12:45:02;14.00;78.00
24618;DHT22;12762;51.730;5.356;2022-11-25T12:47:29;14.00;78.30
24618;DHT22;12762;51.730;5.356;2022-11-25T12:49:56;14.00;78.30
24618;DHT22;12762;51.730;5.356;2022-11-25T12:55:13;14.00;78.30
24618;DHT22;12762;51.730;5.356;2022-11-25T13:17:34;13.70;78.10
24618;DHT22;12762;51.730;5.356;2022-11-25T13:25:38;13.80;78.30
24618;DHT22;12762;51.730;5.356;2022-11-25T13:28:33;13.80;78.20
24618;DHT22;12762;51.730;5.356;2022-11-25T13:36:20;13.80;78.20
24618;DHT22;12762;51.730;5.356;2022-11-25T13:46:43;13.60;77.80
24618;DHT22;12762;51.730;5.356;2022-11-25T13:49:30;13.60;78.00
24618;DHT22;12762;51.730;5.356;2022-11-25T13:54:54;13.50;78.20
24618;DHT22;12762;51.730;5.356;2022-11-25T13:59:50;13.50;78.20
24618;DHT22;12762;51.730;5.356;2022-11-25T14:13:43;13.20;78.50
24618;DHT22;12762;51.730;5.356;2022-11-25T14:26:59;13.00;78.80
24618;DHT22;12762;51.730;5.356;2022-11-25T14:29:39;13.00;78.90
24618;DHT22;12762;51.730;5.356;2022-11-25T14:32:23;13.00;79.00
24618;DHT22;12762;51.730;5.356;2022-11-25T14:35:02;13.00;79.00
24618;DHT22;12762;51.730;5.356;2022-11-25T14:40:35;12.90;79.00
24618;DHT22;12762;51.730;5.356;2022-11-25T14:43:11;12.90;79.10
24618;DHT22;12762;51.730;5.356;2022-11-25T14:45:39;12.90;79.10
24618;DHT22;12762;51.730;5.356;2022-11-25T14:48:18;12.90;79.10
24618;DHT22;12762;51.730;5.356;2022-11-25T14:51:05;12.90;79.10
24618;DHT22;12762;51.730;5.356;2022-11-25T14:53:47;12.90;79.10
24618;DHT22;12762;51.730;5.356;2022-11-25T14:56:40;12.90;79.10
24618;DHT22;12762;51.730;5.356;2022-11-25T14:59:08;12.80;78.90
24618;DHT22;12762;51.730;5.356;2022-11-25T15:01:37;12.80;79.00
24618;DHT22;12762;51.730;5.356;2022-11-25T15:04:17;12.70;79.00
24618;DHT22;12762;51.730;5.356;2022-11-25T15:06:53;12.60;79.00
24618;DHT22;12762;51.730;5.356;2022-11-25T15:09:37;12.60;79.10
24618;DHT22;12762;51.730;5.356;2022-11-25T15:12:10;12.50;79.10
24618;DHT22;12762;51.730;5.356;2022-11-25T15:14:41;12.50;79.40
24618;DHT22;12762;51.730;5.356;2022-11-25T15:17:32;12.40;79.40
24618;DHT22;12762;51.730;5.356;2022-11-25T15:20:11;12.40;79.50
24618;DHT22;12762;51.730;5.356;2022-11-25T15:22:38;12.30;79.50
24618;DHT22;12762;51.730;5.356;2022-11-25T15:25:13;12.30;79.50
24618;DHT22;12762;51.730;5.356;2022-11-25T15:27:47;12.20;79.50
24618;DHT22;12762;51.730;5.356;2022-11-25T15:30:25;12.20;79.60
24618;DHT22;12762;51.730;5.356;2022-11-25T15:32:53;12.20;79.70
24618;DHT22;12762;51.730;5.356;2022-11-25T15:35:25;12.10;79.70
24618;DHT22;12762;51.730;5.356;2022-11-25T15:37:52;12.00;79.70
24618;DHT22;12762;51.730;5.356;2022-11-25T15:40:37;12.00;79.80
24618;DHT22;12762;51.730;5.356;2022-11-25T15:43:24;12.00;79.80
24618;DHT22;12762;51.730;5.356;2022-11-25T15:45:59;11.90;79.90
24618;DHT22;12762;51.730;5.356;2022-11-25T15:48:37;11.80;80.00
24618;DHT22;12762;51.730;5.356;2022-11-25T15:51:16;11.80;80.00
24618;DHT22;12762;51.730;5.356;2022-11-25T15:53:49;11.80;80.20
24618;DHT22;12762;51.730;5.356;2022-11-25T15:56:20;11.70;80.20
24618;DHT22;12762;51.730;5.356;2022-11-25T15:58:48;11.70;80.20
24618;DHT22;12762;51.730;5.356;2022-11-25T16:03:43;11.60;80.40
24618;DHT22;12762;51.730;5.356;2022-11-25T16:06:50;11.50;80.30
24618;DHT22;12762;51.730;5.356;2022-11-25T16:09:20;11.50;81.10
24618;DHT22;12762;51.730;5.356;2022-11-25T16:11:47;11.40;80.50
24618;DHT22;12762;51.730;5.356;2022-11-25T16:14:25;11.40;80.60
24618;DHT22;12762;51.730;5.356;2022-11-25T16:17:00;11.30;80.50
24618;DHT22;12762;51.730;5.356;2022-11-25T16:19:34;11.30;80.70
24618;DHT22;12762;51.730;5.356;2022-11-25T16:22:04;11.30;80.80
24618;DHT22;12762;51.730;5.356;2022-11-25T16:24:37;11.20;80.70
24618;DHT22;12762;51.730;5.356;2022-11-25T16:27:23;11.20;80.80
24618;DHT22;12762;51.730;5.356;2022-11-25T16:29:55;11.20;80.90
24618;DHT22;12762;51.730;5.356;2022-11-25T16:32:29;11.10;80.90
24618;DHT22;12762;51.730;5.356;2022-11-25T16:35:09;11.10;81.00
24618;DHT22;12762;51.730;5.356;2022-11-25T16:37:37;11.00;81.00
24618;DHT22;12762;51.730;5.356;2022-11-25T16:40:11;11.00;81.20
24618;DHT22;12762;51.730;5.356;2022-11-25T16:42:38;11.00;81.30
24618;DHT22;12762;51.730;5.356;2022-11-25T16:45:22;10.90;81.20
24618;DHT22;12762;51.730;5.356;2022-11-25T16:47:50;10.90;81.30
24618;DHT22;12762;51.730;5.356;2022-11-25T16:50:18;10.90;81.40
24618;DHT22;12762;51.730;5.356;2022-11-25T16:52:45;10.80;81.40
24618;DHT22;12762;51.730;5.356;2022-11-25T16:55:12;10.80;81.50
24618;DHT22;12762;51.730;5.356;2022-11-25T16:57:40;10.80;81.60
24618;DHT22;12762;51.730;5.356;2022-11-25T17:00:13;10.70;81.70
24618;DHT22;12762;51.730;5.356;2022-11-25T17:02:42;10.70;81.80
24618;DHT22;12762;51.730;5.356;2022-11-25T17:05:19;10.70;81.90
24618;DHT22;12762;51.730;5.356;2022-11-25T17:07:47;10.60;81.90
24618;DHT22;12762;51.730;5.356;2022-11-25T17:10:16;10.60;81.90
24618;DHT22;12762;51.730;5.356;2022-11-25T17:12:44;10.60;82.00
24618;DHT22;12762;51.730;5.356;2022-11-25T17:15:18;10.50;82.10
24618;DHT22;12762;51.730;5.356;2022-11-25T17:17:46;10.50;82.20
24618;DHT22;12762;51.730;5.356;2022-11-25T17:20:18;10.50;82.20
24618;DHT22;12762;51.730;5.356;2022-11-25T17:22:47;10.40;82.20
24618;DHT22;12762;51.730;5.356;2022-11-25T17:25:14;10.40;82.30
24618;DHT22;12762;51.730;5.356;2022-11-25T17:27:44;10.40;82.40
24618;DHT22;12762;51.730;5.356;2022-11-25T17:30:18;10.40;82.50
24618;DHT22;12762;51.730;5.356;2022-11-25T17:32:46;10.30;82.60
24618;DHT22;12762;51.730;5.356;2022-11-25T17:35:19;10.30;82.70
24618;DHT22;12762;51.730;5.356;2022-11-25T17:37:47;10.30;82.70
24618;DHT22;12762;51.730;5.356;2022-11-25T17:40:14;10.30;82.70
24618;DHT22;12762;51.730;5.356;2022-11-25T17:42:42;10.30;83.60
24618;DHT22;12762;51.730;5.356;2022-11-25T17:45:15;10.20;82.70
24618;DHT22;12762;51.730;5.356;2022-11-25T17:47:46;10.20;82.80
24618;DHT22;12762;51.730;5.356;2022-11-25T17:50:19;10.20;82.90
24618;DHT22;12762;51.730;5.356;2022-11-25T17:52:47;10.20;82.90
24618;DHT22;12762;51.730;5.356;2022-11-25T17:55:15;10.20;83.00
24618;DHT22;12762;51.730;5.356;2022-11-25T17:57:46;10.10;83.10
24618;DHT22;12762;51.730;5.356;2022-11-25T18:00:16;10.10;83.10
24618;DHT22;12762;51.730;5.356;2022-11-25T18:02:43;10.00;83.10
24618;DHT22;12762;51.730;5.356;2022-11-25T18:05:20;10.00;83.10
24618;DHT22;12762;51.730;5.356;2022-11-25T18:07:47;10.00;83.20
24618;DHT22;12762;51.730;5.356;2022-11-25T18:10:17;9.90;84.30
24618;DHT22;12762;51.730;5.356;2022-11-25T18:12:45;9.90;84.40
24618;DHT22;12762;51.730;5.356;2022-11-25T18:15:18;9.90;84.40
24618;DHT22;12762;51.730;5.356;2022-11-25T18:17:48;9.80;84.40
24618;DHT22;12762;51.730;5.356;2022-11-25T18:22:43;9.80;84.60
24618;DHT22;12762;51.730;5.356;2022-11-25T18:25:14;9.70;84.60
24618;DHT22;12762;51.730;5.356;2022-11-25T18:27:42;9.70;84.70
24618;DHT22;12762;51.730;5.356;2022-11-25T18:30:15;9.70;84.80
24618;DHT22;12762;51.730;5.356;2022-11-25T18:32:46;9.70;84.90